sensor_id;sensor_type;location;lat;lon;timestamp;P1;durP1;ratioP1;P2;durP2;ratioP2
13708;SDS011;54933;51.908;7.730;2023-08-12T00:00:50;5.33;;;3.10;;
13708;SDS011;54933;51.908;7.730;2023-08-12T00:03:15;5.17;;;2.57;;
13708;SDS011;54933;51.908;7.730;2023-08-12T00:05:40;3.90;;;2.47;;
13708;SDS011;54933;51.908;7.730;2023-08-12T00:08:07;4.13;;;2.50;;
13708;SDS011;54933;51.908;7.730;2023-08-12T00:10:33;4.40;;;2.53;;
13708;SDS011;54933;51.908;7.730;2023-08-12T00:12:58;3.47;;;2.57;;
13708;SDS011;54933;51.908;7.730;2023-08-12T00:15:24;4.80;;;2.60;;
13708;SDS011;54933;51.908;7.730;2023-08-12T00:17:49;4.93;;;2.50;;
13708;SDS011;54933;51.908;7.730;2023-08-12T00:20:15;4.33;;;2.40;;
13708;SDS011;54933;51.908;7.730;2023-08-12T00:22:41;5.10;;;2.50;;
13708;SDS011;54933;51.908;7.730;2023-08-12T00:25:06;4.07;;;2.90;;
13708;SDS011;54933;51.908;7.730;2023-08-12T00:27:31;8.47;;;3.27;;
13708;SDS011;54933;51.908;7.730;2023-08-12T00:29:57;5.73;;;2.90;;
13708;SDS011;54933;51.908;7.730;2023-08-12T00:32:22;5.17;;;2.50;;
13708;SDS011;54933;51.908;7.730;2023-08-12T00:34:48;4.40;;;2.70;;
13708;SDS011;54933;51.908;7.730;2023-08-12T00:37:13;3.53;;;2.80;;
13708;SDS011;54933;51.908;7.730;2023-08-12T00:39:38;3.97;;;2.47;;
13708;SDS011;54933;51.908;7.730;2023-08-12T00:42:03;4.07;;;2.37;;
13708;SDS011;54933;51.908;7.730;2023-08-12T00:44:29;2.60;;;2.33;;
13708;SDS011;54933;51.908;7.730;2023-08-12T00:46:54;4.30;;;2.67;;
13708;SDS011;54933;51.908;7.730;2023-08-12T00:49:20;3.00;;;2.23;;
13708;SDS011;54933;51.908;7.730;2023-08-12T00:51:46;3.03;;;2.50;;
13708;SDS011;54933;51.908;7.730;2023-08-12T00:54:14;3.33;;;2.40;;
13708;SDS011;54933;51.908;7.730;2023-08-12T00:56:41;6.43;;;2.97;;
13708;SDS011;54933;51.908;7.730;2023-08-12T00:59:08;3.50;;;2.37;;
13708;SDS011;54933;51.908;7.730;2023-08-12T01:01:35;2.87;;;2.67;;
13708;SDS011;54933;51.908;7.730;2023-08-12T01:04:03;5.27;;;2.77;;
13708;SDS011;54933;51.908;7.730;2023-08-12T01:06:29;2.93;;;2.57;;
13708;SDS011;54933;51.908;7.730;2023-08-12T01:08:54;3.47;;;2.13;;
13708;SDS011;54933;51.908;7.730;2023-08-12T01:11:20;4.57;;;2.67;;
13708;SDS011;54933;51.908;7.730;2023-08-12T01:16:20;4.30;;;2.60;;
13708;SDS011;54933;51.908;7.730;2023-08-12T01:18:47;3.23;;;2.50;;
13708;SDS011;54933;51.908;7.730;2023-08-12T01:21:15;6.57;;;2.57;;
13708;SDS011;54933;51.908;7.730;2023-08-12T01:23:42;2.93;;;2.60;;
13708;SDS011;54933;51.908;7.730;2023-08-12T01:26:07;2.97;;;2.50;;
13708;SDS011;54933;51.908;7.730;2023-08-12T01:28:33;3.30;;;2.80;;
13708;SDS011;54933;51.908;7.730;2023-08-12T01:34:02;3.20;;;2.53;;
13708;SDS011;54933;51.908;7.730;2023-08-12T01:36:37;2.53;;;1.80;;
13708;SDS011;54933;51.908;7.730;2023-08-12T01:39:04;3.03;;;2.70;;
13708;SDS011;54933;51.908;7.730;2023-08-12T01:41:33;3.73;;;2.30;;
13708;SDS011;54933;51.908;7.730;2023-08-12T01:44:00;2.37;;;2.13;;
13708;SDS011;54933;51.908;7.730;2023-08-12T01:46:27;2.40;;;2.20;;
13708;SDS011;54933;51.908;7.730;2023-08-12T01:48:52;2.50;;;2.27;;
13708;SDS011;54933;51.908;7.730;2023-08-12T01:51:17;3.77;;;2.27;;
13708;SDS011;54933;51.908;7.730;2023-08-12T01:53:42;2.80;;;2.37;;
13708;SDS011;54933;51.908;7.730;2023-08-12T01:56:08;2.23;;;2.03;;
13708;SDS011;54933;51.908;7.730;2023-08-12T01:58:33;2.77;;;2.30;;
13708;SDS011;54933;51.908;7.730;2023-08-12T02:00:58;2.67;;;2.20;;
13708;SDS011;54933;51.908;7.730;2023-08-12T02:03:23;2.77;;;2.57;;
13708;SDS011;54933;51.908;7.730;2023-08-12T02:05:49;2.60;;;2.40;;
13708;SDS011;54933;51.908;7.730;2023-08-12T02:08:14;2.67;;;2.23;;
13708;SDS011;54933;51.908;7.730;2023-08-12T02:10:39;2.30;;;2.20;;
13708;SDS011;54933;51.908;7.730;2023-08-12T02:13:04;2.33;;;2.10;;
13708;SDS011;54933;51.908;7.730;2023-08-12T02:15:30;3.37;;;2.30;;
13708;SDS011;54933;51.908;7.730;2023-08-12T02:17:55;2.20;;;2.00;;
13708;SDS011;54933;51.908;7.730;2023-08-12T02:20:20;2.80;;;2.00;;
13708;SDS011;54933;51.908;7.730;2023-08-12T02:22:46;2.03;;;1.93;;
13708;SDS011;54933;51.908;7.730;2023-08-12T02:25:11;2.40;;;1.97;;
13708;SDS011;54933;51.908;7.730;2023-08-12T02:27:36;3.50;;;2.23;;
13708;SDS011;54933;51.908;7.730;2023-08-12T02:30:02;3.57;;;2.07;;
13708;SDS011;54933;51.908;7.730;2023-08-12T02:32:28;3.30;;;2.30;;
13708;SDS011;54933;51.908;7.730;2023-08-12T02:34:53;2.73;;;2.37;;
13708;SDS011;54933;51.908;7.730;2023-08-12T02:37:18;2.43;;;2.23;;
13708;SDS011;54933;51.908;7.730;2023-08-12T02:39:43;4.27;;;2.67;;
13708;SDS011;54933;51.908;7.730;2023-08-12T02:42:09;2.43;;;2.23;;
13708;SDS011;54933;51.908;7.730;2023-08-12T02:44:34;3.73;;;2.40;;
13708;SDS011;54933;51.908;7.730;2023-08-12T02:46:59;2.40;;;2.20;;
13708;SDS011;54933;51.908;7.730;2023-08-12T02:49:24;5.47;;;2.87;;
13708;SDS011;54933;51.908;7.730;2023-08-12T02:51:50;2.63;;;2.43;;
13708;SDS011;54933;51.908;7.730;2023-08-12T02:54:15;2.17;;;2.00;;
13708;SDS011;54933;51.908;7.730;2023-08-12T02:56:40;2.20;;;2.10;;
13708;SDS011;54933;51.908;7.730;2023-08-12T02:59:06;3.67;;;2.20;;
13708;SDS011;54933;51.908;7.730;2023-08-12T03:01:31;2.60;;;2.40;;
13708;SDS011;54933;51.908;7.730;2023-08-12T03:03:56;4.20;;;2.27;;
13708;SDS011;54933;51.908;7.730;2023-08-12T03:06:21;2.97;;;2.10;;
13708;SDS011;54933;51.908;7.730;2023-08-12T03:08:47;2.33;;;2.03;;
13708;SDS011;54933;51.908;7.730;2023-08-12T03:11:12;3.10;;;1.97;;
13708;SDS011;54933;51.908;7.730;2023-08-12T03:13:37;2.00;;;1.90;;
13708;SDS011;54933;51.908;7.730;2023-08-12T03:16:03;1.70;;;1.60;;
13708;SDS011;54933;51.908;7.730;2023-08-12T03:18:28;2.57;;;2.00;;
13708;SDS011;54933;51.908;7.730;2023-08-12T03:20:53;2.10;;;1.90;;
13708;SDS011;54933;51.908;7.730;2023-08-12T03:23:19;2.50;;;1.90;;
13708;SDS011;54933;51.908;7.730;2023-08-12T03:25:46;2.80;;;1.97;;
13708;SDS011;54933;51.908;7.730;2023-08-12T03:28:12;2.60;;;2.27;;
13708;SDS011;54933;51.908;7.730;2023-08-12T03:30:38;1.90;;;1.80;;
13708;SDS011;54933;51.908;7.730;2023-08-12T03:33:03;1.77;;;1.67;;
13708;SDS011;54933;51.908;7.730;2023-08-12T03:35:29;2.00;;;1.90;;
13708;SDS011;54933;51.908;7.730;2023-08-12T03:37:54;1.80;;;1.70;;
13708;SDS011;54933;51.908;7.730;2023-08-12T03:40:19;2.40;;;2.20;;
13708;SDS011;54933;51.908;7.730;2023-08-12T03:42:44;2.00;;;1.90;;
13708;SDS011;54933;51.908;7.730;2023-08-12T03:45:10;3.60;;;2.07;;
13708;SDS011;54933;51.908;7.730;2023-08-12T03:47:35;2.50;;;2.07;;
13708;SDS011;54933;51.908;7.730;2023-08-12T03:50:00;2.33;;;2.13;;
13708;SDS011;54933;51.908;7.730;2023-08-12T03:52:26;2.63;;;1.80;;
13708;SDS011;54933;51.908;7.730;2023-08-12T03:54:51;2.13;;;1.83;;
13708;SDS011;54933;51.908;7.730;2023-08-12T03:57:18;2.17;;;1.80;;
13708;SDS011;54933;51.908;7.730;2023-08-12T03:59:43;2.10;;;1.90;;
13708;SDS011;54933;51.908;7.730;2023-08-12T04:02:08;3.13;;;2.20;;
13708;SDS011;54933;51.908;7.730;2023-08-12T04:04:33;2.17;;;2.07;;
13708;SDS011;54933;51.908;7.730;2023-08-12T04:06:59;2.10;;;2.00;;
13708;SDS011;54933;51.908;7.730;2023-08-12T04:09:25;3.17;;;2.30;;
13708;SDS011;54933;51.908;7.730;2023-08-12T04:11:50;2.27;;;2.03;;
13708;SDS011;54933;51.908;7.730;2023-08-12T04:14:16;2.50;;;2.00;;
13708;SDS011;54933;51.908;7.730;2023-08-12T04:16:41;2.33;;;2.13;;
13708;SDS011;54933;51.908;7.730;2023-08-12T04:19:06;3.57;;;2.20;;
13708;SDS011;54933;51.908;7.730;2023-08-12T04:21:32;2.10;;;2.00;;
13708;SDS011;54933;51.908;7.730;2023-08-12T04:23:57;2.07;;;1.97;;
13708;SDS011;54933;51.908;7.730;2023-08-12T04:26:22;2.53;;;2.33;;
13708;SDS011;54933;51.908;7.730;2023-08-12T04:28:47;3.27;;;1.90;;
13708;SDS011;54933;51.908;7.730;2023-08-12T04:31:13;4.60;;;2.30;;
13708;SDS011;54933;51.908;7.730;2023-08-12T04:33:38;1.90;;;1.80;;
13708;SDS011;54933;51.908;7.730;2023-08-12T04:36:03;2.17;;;2.07;;
13708;SDS011;54933;51.908;7.730;2023-08-12T04:38:29;2.63;;;2.20;;
13708;SDS011;54933;51.908;7.730;2023-08-12T04:40:56;2.10;;;2.00;;
13708;SDS011;54933;51.908;7.730;2023-08-12T04:43:21;5.20;;;2.30;;
13708;SDS011;54933;51.908;7.730;2023-08-12T04:45:47;3.43;;;2.60;;
13708;SDS011;54933;51.908;7.730;2023-08-12T04:48:12;2.67;;;2.47;;
13708;SDS011;54933;51.908;7.730;2023-08-12T04:50:38;2.07;;;1.87;;
13708;SDS011;54933;51.908;7.730;2023-08-12T04:53:04;2.00;;;1.90;;
13708;SDS011;54933;51.908;7.730;2023-08-12T04:55:30;2.63;;;2.43;;
13708;SDS011;54933;51.908;7.730;2023-08-12T04:57:55;2.53;;;2.23;;
13708;SDS011;54933;51.908;7.730;2023-08-12T05:00:21;2.37;;;2.27;;
13708;SDS011;54933;51.908;7.730;2023-08-12T05:02:46;2.60;;;2.10;;
13708;SDS011;54933;51.908;7.730;2023-08-12T05:05:12;2.60;;;2.27;;
13708;SDS011;54933;51.908;7.730;2023-08-12T05:07:38;3.17;;;2.90;;
13708;SDS011;54933;51.908;7.730;2023-08-12T05:10:03;2.20;;;2.10;;
13708;SDS011;54933;51.908;7.730;2023-08-12T05:12:28;2.07;;;1.87;;
13708;SDS011;54933;51.908;7.730;2023-08-12T05:14:54;3.90;;;2.40;;
13708;SDS011;54933;51.908;7.730;2023-08-12T05:17:19;3.47;;;2.40;;
13708;SDS011;54933;51.908;7.730;2023-08-12T05:19:44;3.37;;;2.73;;
13708;SDS011;54933;51.908;7.730;2023-08-12T05:22:10;3.33;;;2.87;;
13708;SDS011;54933;51.908;7.730;2023-08-12T05:24:36;2.93;;;2.63;;
13708;SDS011;54933;51.908;7.730;2023-08-12T05:27:01;4.50;;;2.70;;
13708;SDS011;54933;51.908;7.730;2023-08-12T05:29:26;2.60;;;2.40;;
13708;SDS011;54933;51.908;7.730;2023-08-12T05:31:52;3.00;;;2.80;;
13708;SDS011;54933;51.908;7.730;2023-08-12T05:34:18;6.40;;;2.80;;
13708;SDS011;54933;51.908;7.730;2023-08-12T05:36:43;3.63;;;2.57;;
13708;SDS011;54933;51.908;7.730;2023-08-12T05:39:08;5.87;;;3.07;;
13708;SDS011;54933;51.908;7.730;2023-08-12T05:41:34;3.07;;;2.77;;
13708;SDS011;54933;51.908;7.730;2023-08-12T05:43:59;3.00;;;2.80;;
13708;SDS011;54933;51.908;7.730;2023-08-12T05:46:24;3.50;;;3.20;;
13708;SDS011;54933;51.908;7.730;2023-08-12T05:48:49;3.20;;;3.00;;
13708;SDS011;54933;51.908;7.730;2023-08-12T05:51:15;3.23;;;2.67;;
13708;SDS011;54933;51.908;7.730;2023-08-12T05:53:40;3.03;;;2.83;;
13708;SDS011;54933;51.908;7.730;2023-08-12T05:56:05;3.23;;;2.87;;
13708;SDS011;54933;51.908;7.730;2023-08-12T05:58:30;3.93;;;3.57;;
13708;SDS011;54933;51.908;7.730;2023-08-12T06:00:56;6.53;;;4.37;;
13708;SDS011;54933;51.908;7.730;2023-08-12T06:03:21;4.57;;;3.90;;
13708;SDS011;54933;51.908;7.730;2023-08-12T06:05:46;8.87;;;4.20;;
13708;SDS011;54933;51.908;7.730;2023-08-12T06:08:13;6.03;;;4.43;;
13708;SDS011;54933;51.908;7.730;2023-08-12T06:10:39;6.53;;;4.30;;
13708;SDS011;54933;51.908;7.730;2023-08-12T06:13:04;5.73;;;4.20;;
13708;SDS011;54933;51.908;7.730;2023-08-12T06:15:30;7.00;;;4.40;;
13708;SDS011;54933;51.908;7.730;2023-08-12T06:17:55;7.47;;;4.63;;
13708;SDS011;54933;51.908;7.730;2023-08-12T06:20:21;5.03;;;4.53;;
13708;SDS011;54933;51.908;7.730;2023-08-12T06:22:46;7.77;;;5.30;;
13708;SDS011;54933;51.908;7.730;2023-08-12T06:25:12;6.27;;;4.13;;
13708;SDS011;54933;51.908;7.730;2023-08-12T06:27:37;5.53;;;4.23;;
13708;SDS011;54933;51.908;7.730;2023-08-12T06:30:03;5.33;;;4.60;;
13708;SDS011;54933;51.908;7.730;2023-08-12T06:32:28;5.27;;;3.97;;
13708;SDS011;54933;51.908;7.730;2023-08-12T06:34:54;5.97;;;4.03;;
13708;SDS011;54933;51.908;7.730;2023-08-12T06:37:19;5.07;;;4.50;;
13708;SDS011;54933;51.908;7.730;2023-08-12T06:39:44;5.20;;;3.80;;
13708;SDS011;54933;51.908;7.730;2023-08-12T06:42:09;4.63;;;3.20;;
13708;SDS011;54933;51.908;7.730;2023-08-12T06:44:35;6.57;;;3.73;;
13708;SDS011;54933;51.908;7.730;2023-08-12T06:47:00;5.10;;;3.83;;
13708;SDS011;54933;51.908;7.730;2023-08-12T06:49:25;3.90;;;3.43;;
13708;SDS011;54933;51.908;7.730;2023-08-12T06:51:50;6.40;;;4.07;;
13708;SDS011;54933;51.908;7.730;2023-08-12T06:54:16;5.10;;;4.00;;
13708;SDS011;54933;51.908;7.730;2023-08-12T06:56:42;5.23;;;4.10;;
13708;SDS011;54933;51.908;7.730;2023-08-12T06:59:07;5.27;;;3.77;;
13708;SDS011;54933;51.908;7.730;2023-08-12T07:01:32;5.83;;;4.03;;
13708;SDS011;54933;51.908;7.730;2023-08-12T07:03:58;5.57;;;3.90;;
13708;SDS011;54933;51.908;7.730;2023-08-12T07:06:23;5.93;;;3.93;;
13708;SDS011;54933;51.908;7.730;2023-08-12T07:08:48;5.90;;;3.87;;
13708;SDS011;54933;51.908;7.730;2023-08-12T07:11:14;11.67;;;4.50;;
13708;SDS011;54933;51.908;7.730;2023-08-12T07:13:39;17.63;;;4.60;;
13708;SDS011;54933;51.908;7.730;2023-08-12T07:16:04;14.13;;;4.20;;
13708;SDS011;54933;51.908;7.730;2023-08-12T07:18:29;20.43;;;4.00;;
13708;SDS011;54933;51.908;7.730;2023-08-12T07:20:55;13.10;;;3.67;;
13708;SDS011;54933;51.908;7.730;2023-08-12T07:23:23;9.53;;;3.87;;
13708;SDS011;54933;51.908;7.730;2023-08-12T07:25:48;15.57;;;3.73;;
13708;SDS011;54933;51.908;7.730;2023-08-12T07:28:14;8.83;;;3.20;;
13708;SDS011;54933;51.908;7.730;2023-08-12T07:30:40;7.43;;;3.60;;
13708;SDS011;54933;51.908;7.730;2023-08-12T07:33:05;5.37;;;3.37;;
13708;SDS011;54933;51.908;7.730;2023-08-12T07:35:32;4.80;;;2.90;;
13708;SDS011;54933;51.908;7.730;2023-08-12T07:37:57;5.73;;;3.60;;
13708;SDS011;54933;51.908;7.730;2023-08-12T07:40:22;4.83;;;3.00;;
13708;SDS011;54933;51.908;7.730;2023-08-12T07:42:48;25.93;;;3.63;;
13708;SDS011;54933;51.908;7.730;2023-08-12T07:45:13;16.00;;;5.70;;
13708;SDS011;54933;51.908;7.730;2023-08-12T07:47:38;17.40;;;5.00;;
13708;SDS011;54933;51.908;7.730;2023-08-12T07:50:04;17.23;;;4.70;;
13708;SDS011;54933;51.908;7.730;2023-08-12T07:52:30;22.07;;;4.33;;
13708;SDS011;54933;51.908;7.730;2023-08-12T07:54:55;11.73;;;5.47;;
13708;SDS011;54933;51.908;7.730;2023-08-12T07:57:20;11.50;;;5.00;;
13708;SDS011;54933;51.908;7.730;2023-08-12T07:59:49;9.70;;;4.70;;
13708;SDS011;54933;51.908;7.730;2023-08-12T08:02:14;10.43;;;4.40;;
13708;SDS011;54933;51.908;7.730;2023-08-12T08:04:40;8.83;;;4.73;;
13708;SDS011;54933;51.908;7.730;2023-08-12T08:07:05;8.87;;;4.50;;
13708;SDS011;54933;51.908;7.730;2023-08-12T08:09:30;6.23;;;4.47;;
13708;SDS011;54933;51.908;7.730;2023-08-12T08:11:55;4.23;;;3.83;;
13708;SDS011;54933;51.908;7.730;2023-08-12T08:14:21;5.43;;;3.00;;
13708;SDS011;54933;51.908;7.730;2023-08-12T08:16:46;2.40;;;2.20;;
13708;SDS011;54933;51.908;7.730;2023-08-12T08:19:11;32.50;;;6.03;;
13708;SDS011;54933;51.908;7.730;2023-08-12T08:21:37;67.03;;;8.07;;
13708;SDS011;54933;51.908;7.730;2023-08-12T08:24:02;51.83;;;7.83;;
13708;SDS011;54933;51.908;7.730;2023-08-12T08:26:27;60.77;;;7.67;;
13708;SDS011;54933;51.908;7.730;2023-08-12T08:28:53;55.97;;;5.77;;
13708;SDS011;54933;51.908;7.730;2023-08-12T08:31:18;21.77;;;4.53;;
13708;SDS011;54933;51.908;7.730;2023-08-12T08:33:44;10.70;;;3.87;;
13708;SDS011;54933;51.908;7.730;2023-08-12T08:36:09;28.77;;;4.90;;
13708;SDS011;54933;51.908;7.730;2023-08-12T08:38:35;23.60;;;4.33;;
13708;SDS011;54933;51.908;7.730;2023-08-12T08:41:01;30.03;;;4.77;;
13708;SDS011;54933;51.908;7.730;2023-08-12T08:43:29;23.23;;;4.03;;
13708;SDS011;54933;51.908;7.730;2023-08-12T08:45:55;22.27;;;4.30;;
13708;SDS011;54933;51.908;7.730;2023-08-12T08:48:21;24.10;;;4.40;;
13708;SDS011;54933;51.908;7.730;2023-08-12T08:50:47;25.63;;;3.23;;
13708;SDS011;54933;51.908;7.730;2023-08-12T08:53:13;17.07;;;3.27;;
13708;SDS011;54933;51.908;7.730;2023-08-12T08:55:41;15.40;;;3.37;;
13708;SDS011;54933;51.908;7.730;2023-08-12T08:58:06;46.50;;;5.97;;
13708;SDS011;54933;51.908;7.730;2023-08-12T09:00:31;18.50;;;3.97;;
13708;SDS011;54933;51.908;7.730;2023-08-12T09:02:57;1963.10;;;142.17;;
13708;SDS011;54933;51.908;7.730;2023-08-12T09:05:23;414.63;;;26.77;;
13708;SDS011;54933;51.908;7.730;2023-08-12T09:07:49;437.93;;;27.77;;
13708;SDS011;54933;51.908;7.730;2023-08-12T09:10:14;1999.90;;;291.73;;
13708;SDS011;54933;51.908;7.730;2023-08-12T09:12:42;1263.80;;;94.20;;
13708;SDS011;54933;51.908;7.730;2023-08-12T09:15:08;860.20;;;63.37;;
13708;SDS011;54933;51.908;7.730;2023-08-12T09:17:34;916.80;;;70.07;;
13708;SDS011;54933;51.908;7.730;2023-08-12T09:19:59;758.53;;;56.40;;
13708;SDS011;54933;51.908;7.730;2023-08-12T09:22:25;531.37;;;38.93;;
13708;SDS011;54933;51.908;7.730;2023-08-12T09:24:57;460.20;;;31.30;;
13708;SDS011;54933;51.908;7.730;2023-08-12T09:27:23;345.53;;;26.10;;
13708;SDS011;54933;51.908;7.730;2023-08-12T09:29:48;322.57;;;25.70;;
13708;SDS011;54933;51.908;7.730;2023-08-12T09:32:20;243.30;;;20.40;;
13708;SDS011;54933;51.908;7.730;2023-08-12T09:34:46;246.53;;;18.73;;
13708;SDS011;54933;51.908;7.730;2023-08-12T09:37:18;255.43;;;17.10;;
13708;SDS011;54933;51.908;7.730;2023-08-12T09:39:45;219.33;;;16.93;;
13708;SDS011;54933;51.908;7.730;2023-08-12T09:42:12;181.37;;;13.67;;
13708;SDS011;54933;51.908;7.730;2023-08-12T09:44:38;170.47;;;14.03;;
13708;SDS011;54933;51.908;7.730;2023-08-12T09:47:03;142.30;;;13.20;;
13708;SDS011;54933;51.908;7.730;2023-08-12T09:49:29;167.73;;;11.90;;
13708;SDS011;54933;51.908;7.730;2023-08-12T09:51:55;125.53;;;11.57;;
13708;SDS011;54933;51.908;7.730;2023-08-12T09:54:20;120.77;;;10.73;;
13708;SDS011;54933;51.908;7.730;2023-08-12T09:56:47;123.07;;;10.83;;
13708;SDS011;54933;51.908;7.730;2023-08-12T09:59:18;109.23;;;10.27;;
13708;SDS011;54933;51.908;7.730;2023-08-12T10:01:45;91.13;;;10.00;;
13708;SDS011;54933;51.908;7.730;2023-08-12T10:04:11;89.33;;;9.33;;
13708;SDS011;54933;51.908;7.730;2023-08-12T10:06:40;88.17;;;9.10;;
13708;SDS011;54933;51.908;7.730;2023-08-12T10:09:06;59.17;;;8.13;;
13708;SDS011;54933;51.908;7.730;2023-08-12T10:11:33;82.77;;;7.90;;
13708;SDS011;54933;51.908;7.730;2023-08-12T10:14:00;57.87;;;6.57;;
13708;SDS011;54933;51.908;7.730;2023-08-12T10:16:25;73.80;;;7.07;;
13708;SDS011;54933;51.908;7.730;2023-08-12T10:18:54;52.13;;;6.73;;
13708;SDS011;54933;51.908;7.730;2023-08-12T10:21:20;47.40;;;5.47;;
13708;SDS011;54933;51.908;7.730;2023-08-12T10:23:48;45.13;;;5.50;;
13708;SDS011;54933;51.908;7.730;2023-08-12T10:26:15;37.37;;;5.37;;
13708;SDS011;54933;51.908;7.730;2023-08-12T10:28:42;38.73;;;4.90;;
13708;SDS011;54933;51.908;7.730;2023-08-12T10:31:07;34.63;;;4.80;;
13708;SDS011;54933;51.908;7.730;2023-08-12T10:33:36;33.30;;;4.77;;
13708;SDS011;54933;51.908;7.730;2023-08-12T10:36:03;39.70;;;5.07;;
13708;SDS011;54933;51.908;7.730;2023-08-12T10:38:28;39.77;;;4.97;;
13708;SDS011;54933;51.908;7.730;2023-08-12T10:41:15;30.03;;;3.80;;
13708;SDS011;54933;51.908;7.730;2023-08-12T10:43:51;28.40;;;3.53;;
13708;SDS011;54933;51.908;7.730;2023-08-12T10:46:35;24.10;;;3.70;;
13708;SDS011;54933;51.908;7.730;2023-08-12T10:49:08;16.53;;;3.00;;
13708;SDS011;54933;51.908;7.730;2023-08-12T10:51:41;23.90;;;3.50;;
13708;SDS011;54933;51.908;7.730;2023-08-12T10:54:16;17.10;;;2.83;;
13708;SDS011;54933;51.908;7.730;2023-08-12T11:02:13;20.83;;;3.93;;
13708;SDS011;54933;51.908;7.730;2023-08-12T11:04:41;33.63;;;4.17;;
13708;SDS011;54933;51.908;7.730;2023-08-12T11:07:20;21.07;;;3.53;;
13708;SDS011;54933;51.908;7.730;2023-08-12T11:09:50;24.03;;;4.30;;
13708;SDS011;54933;51.908;7.730;2023-08-12T11:15:17;26.67;;;2.97;;
13708;SDS011;54933;51.908;7.730;2023-08-12T11:17:44;17.30;;;2.50;;
13708;SDS011;54933;51.908;7.730;2023-08-12T11:20:11;21.10;;;2.60;;
13708;SDS011;54933;51.908;7.730;2023-08-12T11:22:42;16.67;;;2.50;;
13708;SDS011;54933;51.908;7.730;2023-08-12T11:25:09;13.77;;;2.63;;
13708;SDS011;54933;51.908;7.730;2023-08-12T11:27:37;7.73;;;2.80;;
13708;SDS011;54933;51.908;7.730;2023-08-12T11:30:03;10.97;;;2.37;;
13708;SDS011;54933;51.908;7.730;2023-08-12T11:32:29;10.53;;;2.43;;
13708;SDS011;54933;51.908;7.730;2023-08-12T11:34:55;11.87;;;2.27;;
13708;SDS011;54933;51.908;7.730;2023-08-12T11:37:20;8.93;;;2.47;;
13708;SDS011;54933;51.908;7.730;2023-08-12T11:39:46;10.63;;;2.50;;
13708;SDS011;54933;51.908;7.730;2023-08-12T11:42:11;19.27;;;2.90;;
13708;SDS011;54933;51.908;7.730;2023-08-12T11:44:36;9.27;;;2.17;;
13708;SDS011;54933;51.908;7.730;2023-08-12T11:47:04;10.80;;;2.73;;
13708;SDS011;54933;51.908;7.730;2023-08-12T11:49:29;10.03;;;2.10;;
13708;SDS011;54933;51.908;7.730;2023-08-12T11:51:55;6.87;;;1.60;;
13708;SDS011;54933;51.908;7.730;2023-08-12T11:54:20;10.10;;;1.60;;
13708;SDS011;54933;51.908;7.730;2023-08-12T11:56:46;7.90;;;1.60;;
13708;SDS011;54933;51.908;7.730;2023-08-12T11:59:11;7.27;;;2.10;;
13708;SDS011;54933;51.908;7.730;2023-08-12T12:01:37;7.83;;;1.90;;
13708;SDS011;54933;51.908;7.730;2023-08-12T12:04:02;5.07;;;2.17;;
13708;SDS011;54933;51.908;7.730;2023-08-12T12:06:31;7.93;;;2.17;;
13708;SDS011;54933;51.908;7.730;2023-08-12T12:09:01;26.93;;;4.53;;
13708;SDS011;54933;51.908;7.730;2023-08-12T12:11:32;6.87;;;2.20;;
13708;SDS011;54933;51.908;7.730;2023-08-12T12:14:03;4.57;;;2.10;;
13708;SDS011;54933;51.908;7.730;2023-08-12T12:16:39;5.73;;;1.80;;
13708;SDS011;54933;51.908;7.730;2023-08-12T12:19:18;21.90;;;3.30;;
13708;SDS011;54933;51.908;7.730;2023-08-12T12:21:47;8.50;;;1.87;;
13708;SDS011;54933;51.908;7.730;2023-08-12T12:24:17;14.90;;;2.93;;
13708;SDS011;54933;51.908;7.730;2023-08-12T12:26:44;9.47;;;2.13;;
13708;SDS011;54933;51.908;7.730;2023-08-12T12:29:10;13.83;;;2.90;;
13708;SDS011;54933;51.908;7.730;2023-08-12T12:31:39;32.33;;;4.47;;
13708;SDS011;54933;51.908;7.730;2023-08-12T12:34:05;11.60;;;2.20;;
13708;SDS011;54933;51.908;7.730;2023-08-12T12:36:31;13.47;;;2.30;;
13708;SDS011;54933;51.908;7.730;2023-08-12T12:38:58;27.20;;;2.80;;
13708;SDS011;54933;51.908;7.730;2023-08-12T12:41:24;19.80;;;2.77;;
13708;SDS011;54933;51.908;7.730;2023-08-12T12:43:49;17.97;;;3.43;;
13708;SDS011;54933;51.908;7.730;2023-08-12T12:46:15;30.93;;;4.53;;
13708;SDS011;54933;51.908;7.730;2023-08-12T12:48:40;18.13;;;4.03;;
13708;SDS011;54933;51.908;7.730;2023-08-12T12:51:06;13.30;;;2.97;;
13708;SDS011;54933;51.908;7.730;2023-08-12T12:53:32;15.23;;;3.87;;
13708;SDS011;54933;51.908;7.730;2023-08-12T12:55:57;23.17;;;2.90;;
13708;SDS011;54933;51.908;7.730;2023-08-12T12:58:28;9.03;;;2.10;;
13708;SDS011;54933;51.908;7.730;2023-08-12T13:00:53;15.27;;;2.97;;
13708;SDS011;54933;51.908;7.730;2023-08-12T13:03:18;13.40;;;2.40;;
13708;SDS011;54933;51.908;7.730;2023-08-12T13:05:43;12.27;;;2.50;;
13708;SDS011;54933;51.908;7.730;2023-08-12T13:08:09;11.73;;;2.40;;
13708;SDS011;54933;51.908;7.730;2023-08-12T13:10:34;11.80;;;2.00;;
13708;SDS011;54933;51.908;7.730;2023-08-12T13:12:59;14.03;;;2.43;;
13708;SDS011;54933;51.908;7.730;2023-08-12T13:15:25;18.80;;;2.40;;
13708;SDS011;54933;51.908;7.730;2023-08-12T13:17:51;6.70;;;2.10;;
13708;SDS011;54933;51.908;7.730;2023-08-12T13:20:17;7.07;;;1.80;;
13708;SDS011;54933;51.908;7.730;2023-08-12T13:22:42;8.80;;;2.67;;
13708;SDS011;54933;51.908;7.730;2023-08-12T13:25:07;5.93;;;2.00;;
13708;SDS011;54933;51.908;7.730;2023-08-12T13:27:33;7.70;;;1.97;;
13708;SDS011;54933;51.908;7.730;2023-08-12T13:29:58;11.93;;;2.27;;
13708;SDS011;54933;51.908;7.730;2023-08-12T13:32:23;29.83;;;3.37;;
13708;SDS011;54933;51.908;7.730;2023-08-12T13:34:48;40.27;;;3.83;;
13708;SDS011;54933;51.908;7.730;2023-08-12T13:37:14;24.70;;;3.63;;
13708;SDS011;54933;51.908;7.730;2023-08-12T13:39:39;25.97;;;2.53;;
13708;SDS011;54933;51.908;7.730;2023-08-12T13:42:05;7.93;;;2.30;;
13708;SDS011;54933;51.908;7.730;2023-08-12T13:44:30;9.53;;;1.80;;
13708;SDS011;54933;51.908;7.730;2023-08-12T13:46:55;10.83;;;2.00;;
13708;SDS011;54933;51.908;7.730;2023-08-12T13:49:20;5.67;;;1.70;;
13708;SDS011;54933;51.908;7.730;2023-08-12T13:51:46;5.50;;;1.87;;
13708;SDS011;54933;51.908;7.730;2023-08-12T13:54:11;4.50;;;2.43;;
13708;SDS011;54933;51.908;7.730;2023-08-12T13:56:36;11.13;;;2.10;;
13708;SDS011;54933;51.908;7.730;2023-08-12T13:59:02;2.73;;;1.47;;
13708;SDS011;54933;51.908;7.730;2023-08-12T14:01:27;8.13;;;1.63;;
13708;SDS011;54933;51.908;7.730;2023-08-12T14:03:52;5.43;;;1.50;;
13708;SDS011;54933;51.908;7.730;2023-08-12T14:06:18;5.90;;;2.17;;
13708;SDS011;54933;51.908;7.730;2023-08-12T14:08:43;3.30;;;1.87;;
13708;SDS011;54933;51.908;7.730;2023-08-12T14:11:08;3.97;;;1.80;;
13708;SDS011;54933;51.908;7.730;2023-08-12T14:13:34;3.53;;;1.20;;
13708;SDS011;54933;51.908;7.730;2023-08-12T14:15:59;3.27;;;1.30;;
13708;SDS011;54933;51.908;7.730;2023-08-12T14:18:24;1.47;;;1.40;;
13708;SDS011;54933;51.908;7.730;2023-08-12T14:20:49;6.47;;;1.60;;
13708;SDS011;54933;51.908;7.730;2023-08-12T14:23:15;14.83;;;2.80;;
13708;SDS011;54933;51.908;7.730;2023-08-12T14:25:40;7.23;;;1.67;;
13708;SDS011;54933;51.908;7.730;2023-08-12T14:28:05;3.60;;;1.47;;
13708;SDS011;54933;51.908;7.730;2023-08-12T14:30:31;1.87;;;1.40;;
13708;SDS011;54933;51.908;7.730;2023-08-12T14:32:56;4.13;;;1.60;;
13708;SDS011;54933;51.908;7.730;2023-08-12T14:35:21;1.80;;;1.40;;
13708;SDS011;54933;51.908;7.730;2023-08-12T14:37:46;4.53;;;1.50;;
13708;SDS011;54933;51.908;7.730;2023-08-12T14:40:12;2.67;;;1.20;;
13708;SDS011;54933;51.908;7.730;2023-08-12T14:42:37;1.30;;;1.20;;
13708;SDS011;54933;51.908;7.730;2023-08-12T14:45:03;2.30;;;1.13;;
13708;SDS011;54933;51.908;7.730;2023-08-12T14:47:29;2.80;;;1.50;;